Streamwood, Illinois
Current Conditions -  °F | °C
As of 2:52 PM on Tuesday 21 Oct 2014 (Local Time) from KDPA Reporting Station
Overcast Overcast  
Wind Chill: 51°   Ceiling: 3300
Heat Index: 51°   Visibility: 10mi
Dew Point: 39°   Wind: 14mph
Humidity: 63%   Direction: 30°NNE
Pressure: 30.18"   Gusts: NA
Location:  42.01°N, 88.17°W
Report Text: KDPA 211952Z 03012KT 10SM OVC033 11/04 A3018 RMK AO2 SLP223 T01060039
Loading
Personal Weather Stations






























Interactive Weather Map
Tropical Storm Tracking
New forecast layout! Learn more

10-Day Weather Forecast

Advertisements
Track Severe Weather on mobile